createdAt,value
2022-11-06T00:00:48.933Z,99077.16
2022-11-06T00:02:50.566Z,99084.28
2022-11-06T00:04:52.075Z,99075.50
2022-11-06T00:06:53.540Z,99068.63
2022-11-06T00:08:55.572Z,99077.63
2022-11-06T00:10:57.282Z,99069.91
2022-11-06T00:13:00.160Z,99068.50
2022-11-06T00:15:01.658Z,99071.47
2022-11-06T00:17:03.175Z,99073.59
2022-11-06T00:19:05.510Z,99073.25
2022-11-06T00:21:12.699Z,99073.50
2022-11-06T00:23:14.211Z,99066.63
2022-11-06T00:25:15.820Z,99074.41
2022-11-06T00:27:17.469Z,99064.56
2022-11-06T00:29:18.988Z,99067.31
2022-11-06T00:31:23.141Z,99069.66
2022-11-06T00:33:24.705Z,99072.84
2022-11-06T00:35:26.101Z,99062.19
2022-11-06T00:37:27.765Z,99065.38
2022-11-06T00:39:29.270Z,99063.94
2022-11-06T00:41:31.353Z,99066.91
2022-11-06T00:43:33.579Z,99067.38
2022-11-06T00:45:35.068Z,99064.03
2022-11-06T00:47:36.544Z,99064.75
2022-11-06T00:49:39.077Z,99070.44
2022-11-06T00:51:40.705Z,99078.03
2022-11-06T00:53:43.401Z,99073.88
2022-11-06T00:55:44.986Z,99078.09
2022-11-06T00:57:46.503Z,99072.31
2022-11-06T00:59:48.207Z,99075.25
2022-11-06T01:01:49.945Z,99070.06
2022-11-06T01:04:22.094Z,99071.09
2022-11-06T01:06:27.072Z,99065.78
2022-11-06T01:08:28.556Z,99063.28
2022-11-06T01:10:30.028Z,99064.56
2022-11-06T01:12:32.687Z,99078.41
2022-11-06T01:14:34.166Z,99079.72
2022-11-06T01:16:35.745Z,99089.16
2022-11-06T01:18:38.497Z,99083.34
2022-11-06T01:20:40.099Z,99080.88
2022-11-06T01:22:41.549Z,99087.00
2022-11-06T01:24:43.170Z,99088.28
2022-11-06T01:26:58.775Z,99082.25
2022-11-06T01:29:08.798Z,99079.16
2022-11-06T01:31:13.650Z,99077.50
2022-11-06T01:33:15.225Z,99085.66
2022-11-06T01:35:16.797Z,99085.28
2022-11-06T01:37:18.499Z,99087.44
2022-11-06T01:39:20.084Z,99080.56
2022-11-06T01:41:37.286Z,99072.00
2022-11-06T01:43:56.930Z,99074.34
2022-11-06T01:45:58.463Z,99069.16
2022-11-06T01:48:00.453Z,99067.47
2022-11-06T01:50:08.832Z,99068.16
2022-11-06T01:52:13.103Z,99059.16
2022-11-06T01:54:15.723Z,99061.09
2022-11-06T01:56:19.251Z,99062.97
2022-11-06T01:58:23.578Z,99049.81
2022-11-06T02:00:26.116Z,99051.34
2022-11-06T02:02:27.922Z,99048.63
2022-11-06T02:04:34.478Z,99048.25
2022-11-06T02:06:36.895Z,99043.03
2022-11-06T02:08:38.391Z,99040.31
2022-11-06T02:10:41.120Z,99042.44
2022-11-06T02:12:42.556Z,99048.94
2022-11-06T02:15:11.271Z,99053.75
2022-11-06T02:17:24.605Z,99055.88
2022-11-06T02:19:53.456Z,99049.25
2022-11-06T02:22:04.181Z,99055.72
2022-11-06T02:24:42.918Z,99054.09
2022-11-06T02:27:17.067Z,99051.59
2022-11-06T02:29:29.352Z,99053.47
2022-11-06T02:31:35.413Z,99053.94
2022-11-06T02:33:45.844Z,99048.50
2022-11-06T02:35:56.439Z,99046.00
2022-11-06T02:38:07.035Z,99035.38
2022-11-06T02:40:11.098Z,99032.66
2022-11-06T02:42:17.458Z,99031.22
2022-11-06T02:44:24.344Z,99028.72
2022-11-06T02:46:35.678Z,99022.69
2022-11-06T02:48:44.620Z,99024.56
2022-11-06T02:50:50.406Z,99019.81
2022-11-06T02:53:05.894Z,99021.09
2022-11-06T02:55:12.080Z,99014.81
2022-11-06T02:57:17.051Z,99011.75
2022-11-06T02:59:26.623Z,99010.53
2022-11-06T03:01:34.443Z,99006.63
2022-11-06T03:03:41.944Z,99013.94
2022-11-06T03:05:52.923Z,99013.78
2022-11-06T03:08:02.302Z,99024.03
2022-11-06T03:10:06.477Z,99020.28
2022-11-06T03:12:29.639Z,99018.84
2022-11-06T03:15:00.109Z,99024.50
2022-11-06T03:17:09.984Z,99017.63
2022-11-06T03:19:21.192Z,99015.16
2022-11-06T03:21:38.273Z,99015.34
2022-11-06T03:23:49.163Z,99010.16
2022-11-06T03:25:59.703Z,99013.13
2022-11-06T03:28:23.397Z,99011.69
2022-11-06T03:30:25.158Z,99012.13
2022-11-06T03:32:32.410Z,99009.41
2022-11-06T03:34:44.389Z,99008.97
2022-11-06T03:36:53.764Z,99009.22
2022-11-06T03:39:04.700Z,99002.34
2022-11-06T03:41:16.325Z,98992.53
2022-11-06T03:43:22.132Z,98995.25
2022-11-06T03:45:26.592Z,98989.47
2022-11-06T03:47:40.549Z,98986.94
2022-11-06T03:49:50.832Z,98984.47
2022-11-06T03:52:06.174Z,98988.47
2022-11-06T03:54:17.125Z,98988.66
2022-11-06T03:56:27.684Z,98990.19
2022-11-06T03:58:33.895Z,98983.31
2022-11-06T04:00:38.580Z,98987.91
2022-11-06T04:02:45.596Z,98988.34
2022-11-06T04:04:57.161Z,98989.63
2022-11-06T04:07:05.726Z,98989.88
2022-11-06T04:09:29.289Z,98990.31
2022-11-06T04:11:52.937Z,98995.97
2022-11-06T04:14:00.837Z,98998.09
2022-11-06T04:16:02.666Z,99007.50
2022-11-06T04:18:11.686Z,99002.06
2022-11-06T04:20:38.304Z,99003.34
2022-11-06T04:22:58.563Z,99004.16
2022-11-06T04:25:37.584Z,99001.69
2022-11-06T04:28:10.339Z,99001.44
2022-11-06T04:30:15.617Z,98998.53
2022-11-06T04:32:36.663Z,98992.25
2022-11-06T04:34:50.575Z,98998.28
2022-11-06T04:37:06.418Z,98996.16
2022-11-06T04:39:16.175Z,99009.31
2022-11-06T04:41:39.505Z,98993.84
2022-11-06T04:43:54.260Z,98989.25
2022-11-06T04:45:59.976Z,98974.03
2022-11-06T04:48:04.003Z,98981.13
2022-11-06T04:50:09.093Z,98975.69
2022-11-06T04:52:18.121Z,98978.16
2022-11-06T04:54:19.861Z,98985.28
2022-11-06T04:56:29.718Z,98973.13
2022-11-06T04:58:31.950Z,98977.50
2022-11-06T05:00:34.062Z,98978.13
2022-11-06T05:02:35.630Z,98978.72
2022-11-06T05:04:37.140Z,98978.28
2022-11-06T05:06:38.883Z,98978.66
2022-11-06T05:08:40.618Z,98975.50
2022-11-06T05:10:43.659Z,98975.88
2022-11-06T05:12:47.559Z,98968.09
2022-11-06T05:14:49.149Z,98955.94
2022-11-06T05:16:50.704Z,98961.97
2022-11-06T05:18:52.140Z,98957.81
2022-11-06T05:21:14.095Z,98954.66
2022-11-06T05:23:15.613Z,98957.97
2022-11-06T05:25:17.273Z,98952.88
2022-11-06T05:27:18.826Z,98953.72
2022-11-06T05:29:20.273Z,98948.69
2022-11-06T05:31:22.148Z,98942.56
2022-11-06T05:33:23.831Z,98944.81
2022-11-06T05:35:25.399Z,98937.25
2022-11-06T05:37:27.757Z,98933.03
2022-11-06T05:39:29.190Z,98930.94
2022-11-06T05:41:30.752Z,98929.84
2022-11-06T05:43:33.598Z,98922.09
2022-11-06T05:45:35.185Z,98927.88
2022-11-06T05:47:40.414Z,98926.81
2022-11-06T05:49:41.857Z,98924.50
2022-11-06T05:51:43.629Z,98929.44
2022-11-06T05:53:45.152Z,98932.78
2022-11-06T05:55:47.236Z,98929.81
2022-11-06T05:57:48.795Z,98926.84
2022-11-06T05:59:50.290Z,98907.63
2022-11-06T06:01:51.859Z,98920.53
2022-11-06T06:03:53.489Z,98917.34
2022-11-06T06:05:55.215Z,98914.63
2022-11-06T06:07:56.702Z,98911.06
2022-11-06T06:09:58.346Z,98913.53
2022-11-06T06:11:59.819Z,98914.97
2022-11-06T06:14:01.766Z,98922.06
2022-11-06T06:16:03.771Z,98924.56
2022-11-06T06:18:06.135Z,98924.34
2022-11-06T06:20:08.410Z,98920.53
2022-11-06T06:22:10.498Z,98923.88
2022-11-06T06:24:12.038Z,98925.31
2022-11-06T06:26:13.679Z,98930.75
2022-11-06T06:28:15.581Z,98934.91
2022-11-06T06:30:18.030Z,98934.66
2022-11-06T06:32:19.535Z,98941.75
2022-11-06T06:34:21.046Z,98941.75
2022-11-06T06:36:22.601Z,98951.34
2022-11-06T06:38:25.848Z,98951.94
2022-11-06T06:40:29.709Z,98965.06
2022-11-06T06:42:31.584Z,98965.06
2022-11-06T06:44:33.156Z,98973.22
2022-11-06T06:46:34.684Z,98994.53
2022-11-06T06:48:36.246Z,98988.00
2022-11-06T06:50:38.285Z,98992.41
2022-11-06T06:52:39.822Z,99001.16
2022-11-06T06:54:41.321Z,98996.09
2022-11-06T06:56:43.140Z,98990.41
2022-11-06T06:58:44.563Z,98992.69
2022-11-06T07:00:47.055Z,98995.97
2022-11-06T07:02:48.593Z,98998.47
2022-11-06T07:04:50.098Z,98987.38
2022-11-06T07:06:55.044Z,98985.47
2022-11-06T07:08:56.638Z,98975.19
2022-11-06T07:11:05.039Z,98985.00
2022-11-06T07:13:06.568Z,98982.06
2022-11-06T07:15:08.679Z,98977.22
2022-11-06T07:17:10.241Z,98965.28
2022-11-06T07:19:11.718Z,98962.31
2022-11-06T07:21:13.374Z,98955.56
2022-11-06T07:23:14.790Z,98964.31
2022-11-06T07:25:16.267Z,98964.31
2022-11-06T07:27:17.908Z,98970.13
2022-11-06T07:29:19.419Z,98969.06
2022-11-06T07:31:20.990Z,98971.56
2022-11-06T07:33:22.538Z,98970.25
2022-11-06T07:35:23.996Z,98964.34
2022-11-06T07:37:25.639Z,98956.53
2022-11-06T07:39:27.109Z,98966.13
2022-11-06T07:41:28.690Z,98954.19
2022-11-06T07:43:30.510Z,98961.06
2022-11-06T07:45:32.555Z,98964.34
2022-11-06T07:47:33.978Z,98958.91
2022-11-06T07:49:35.463Z,98955.47
2022-11-06T07:51:37.002Z,98947.91
2022-11-06T07:53:39.152Z,98944.97
2022-11-06T07:55:48.236Z,98941.16
2022-11-06T07:57:49.745Z,98946.38
2022-11-06T07:59:51.342Z,98936.34
2022-11-06T08:01:53.075Z,98942.34
2022-11-06T08:03:54.626Z,98933.94
2022-11-06T08:05:57.597Z,98927.19
2022-11-06T08:07:59.147Z,98928.63
2022-11-06T08:10:00.708Z,98928.41
2022-11-06T08:12:02.695Z,98923.75
2022-11-06T08:14:04.273Z,98928.72
2022-11-06T08:16:11.804Z,98914.91
2022-11-06T08:18:13.727Z,98908.16
2022-11-06T08:20:15.611Z,98908.94
2022-11-06T08:22:17.276Z,98903.03
2022-11-06T08:24:21.889Z,98897.94
2022-11-06T08:26:24.112Z,98889.78
2022-11-06T08:28:26.303Z,98892.03
2022-11-06T08:30:29.471Z,98899.13
2022-11-06T08:32:31.019Z,98894.50
2022-11-06T08:34:35.614Z,98890.47
2022-11-06T08:36:40.825Z,98887.75
2022-11-06T08:38:42.953Z,98885.63
2022-11-06T08:40:48.149Z,98891.91
2022-11-06T08:42:52.411Z,98877.00
2022-11-06T08:44:54.060Z,98880.56
2022-11-06T08:46:55.846Z,98868.34
2022-11-06T08:48:57.443Z,98872.47
2022-11-06T08:50:59.150Z,98873.66
2022-11-06T08:53:04.096Z,98870.69
2022-11-06T08:55:05.831Z,98868.56
2022-11-06T08:57:07.431Z,98869.97
2022-11-06T08:59:09.143Z,98876.00
2022-11-06T09:01:10.836Z,98877.41
2022-11-06T09:03:15.462Z,98877.75
2022-11-06T09:05:17.439Z,98867.78
2022-11-06T09:07:19.016Z,98861.84
2022-11-06T09:09:20.615Z,98873.94
2022-11-06T09:11:25.441Z,98858.63
2022-11-06T09:13:27.110Z,98859.22
2022-11-06T09:15:28.835Z,98863.84
2022-11-06T09:17:30.483Z,98857.09
2022-11-06T09:19:32.159Z,98853.53
2022-11-06T09:21:33.811Z,98836.09
2022-11-06T09:23:38.351Z,98835.28
2022-11-06T09:25:40.106Z,98829.31
2022-11-06T09:27:42.818Z,98829.09
2022-11-06T09:29:45.662Z,98820.91
2022-11-06T09:31:47.395Z,98827.22
2022-11-06T09:33:49.157Z,98825.28
2022-11-06T09:35:50.781Z,98830.81
2022-11-06T09:37:52.576Z,98834.16
2022-11-06T09:40:06.274Z,98817.53
2022-11-06T09:42:35.828Z,98822.16
2022-11-06T09:44:55.141Z,98826.06
2022-11-06T09:46:59.911Z,98816.31
2022-11-06T09:49:20.372Z,98812.53
2022-11-06T09:51:29.959Z,98810.13
2022-11-06T09:53:38.033Z,98801.94
2022-11-06T09:55:43.705Z,98804.19
2022-11-06T09:57:55.252Z,98800.13
2022-11-06T09:59:58.027Z,98793.09
2022-11-06T10:02:01.759Z,98791.56
2022-11-06T10:04:05.411Z,98794.84
2022-11-06T10:06:07.197Z,98796.00
2022-11-06T10:08:22.146Z,98790.88
2022-11-06T10:10:30.962Z,98799.97
2022-11-06T10:12:32.492Z,98795.09
2022-11-06T10:14:58.886Z,98796.50
2022-11-06T10:17:35.560Z,98794.13
2022-11-06T10:19:46.262Z,98787.06
2022-11-06T10:22:18.880Z,98786.56
2022-11-06T10:24:28.508Z,98777.63
2022-11-06T10:26:49.179Z,98784.50
2022-11-06T10:29:05.324Z,98780.44
2022-11-06T10:31:25.266Z,98782.41
2022-11-06T10:33:27.013Z,98771.00
2022-11-06T10:35:36.079Z,98770.50
2022-11-06T10:37:52.751Z,98760.97
2022-11-06T10:39:58.219Z,98753.34
2022-11-06T10:42:09.772Z,98758.56
2022-11-06T10:44:21.745Z,98755.31
2022-11-06T10:46:37.206Z,98752.38
2022-11-06T10:48:51.783Z,98745.81
2022-11-06T10:51:18.681Z,98742.84
2022-11-06T10:53:38.914Z,98745.63
2022-11-06T10:56:11.001Z,98745.88
2022-11-06T10:58:26.879Z,98739.09
2022-11-06T11:00:28.639Z,98745.75
2022-11-06T11:02:34.050Z,98742.50
2022-11-06T11:04:35.954Z,98742.81
2022-11-06T11:06:41.285Z,98731.66
2022-11-06T11:08:45.900Z,98730.88
2022-11-06T11:11:03.974Z,98733.91
2022-11-06T11:13:08.851Z,98731.50
2022-11-06T11:15:14.995Z,98741.09
2022-11-06T11:17:20.668Z,98731.28
2022-11-06T11:19:26.936Z,98729.22
2022-11-06T11:21:32.809Z,98723.53
2022-11-06T11:23:34.538Z,98712.66
2022-11-06T11:25:36.516Z,98703.69
2022-11-06T11:27:46.114Z,98695.81
2022-11-06T11:29:50.443Z,98691.22
2022-11-06T11:31:58.922Z,98681.69
2022-11-06T11:34:10.810Z,98682.53
2022-11-06T11:36:12.472Z,98686.66
2022-11-06T11:38:16.638Z,98688.03
2022-11-06T11:40:35.779Z,98682.06
2022-11-06T11:42:39.628Z,98687.84
2022-11-06T11:44:41.195Z,98693.59
2022-11-06T11:46:51.526Z,98687.91
2022-11-06T11:48:57.954Z,98675.34
2022-11-06T11:51:13.246Z,98674.00
2022-11-06T11:53:22.098Z,98673.75
2022-11-06T11:55:28.074Z,98670.47
2022-11-06T11:57:30.608Z,98664.75
2022-11-06T11:59:44.356Z,98652.72
2022-11-06T12:01:46.728Z,98646.16
2022-11-06T12:03:52.482Z,98641.00
2022-11-06T12:06:04.214Z,98636.66
2022-11-06T12:08:12.570Z,98634.78
2022-11-06T12:10:30.839Z,98638.94
2022-11-06T12:12:34.561Z,98637.09
2022-11-06T12:14:40.014Z,98640.47
2022-11-06T12:16:42.621Z,98637.50
2022-11-06T12:18:48.524Z,98626.88
2022-11-06T12:21:03.450Z,98624.47
2022-11-06T12:23:24.803Z,98625.28
2022-11-06T12:25:34.232Z,98615.75
2022-11-06T12:27:42.067Z,98615.50
2022-11-06T12:30:01.372Z,98611.13
2022-11-06T12:32:21.421Z,98603.22
2022-11-06T12:34:31.093Z,98594.44
2022-11-06T12:36:39.478Z,98596.91
2022-11-06T12:39:01.911Z,98585.94
2022-11-06T12:41:16.532Z,98578.28
2022-11-06T12:43:37.514Z,98582.38
2022-11-06T12:46:04.303Z,98576.06
2022-11-06T12:48:29.549Z,98573.91
2022-11-06T12:51:12.490Z,98572.53
2022-11-06T12:53:35.216Z,98569.50
2022-11-06T12:55:58.894Z,98564.56
2022-11-06T12:58:17.369Z,98556.06
2022-11-06T13:00:21.872Z,98558.81
2022-11-06T13:03:00.502Z,98563.16
2022-11-06T13:05:14.015Z,98549.75
2022-11-06T13:07:43.458Z,98540.16
2022-11-06T13:10:26.889Z,98538.25
2022-11-06T13:12:46.917Z,98543.72
2022-11-06T13:15:38.364Z,98537.09
2022-11-06T13:17:52.063Z,98528.91
2022-11-06T13:20:27.086Z,98526.69
2022-11-06T13:22:49.005Z,98519.31
2022-11-06T13:25:17.338Z,98517.41
2022-11-06T13:27:38.571Z,98501.53
2022-11-06T13:29:42.739Z,98499.91
2022-11-06T13:31:55.701Z,98491.69
2022-11-06T13:34:03.825Z,98493.63
2022-11-06T13:36:07.417Z,98484.59
2022-11-06T13:38:18.162Z,98488.16
2022-11-06T13:40:43.380Z,98480.19
2022-11-06T13:43:11.975Z,98479.41
2022-11-06T13:45:18.112Z,98473.09
2022-11-06T13:47:34.103Z,98464.34
2022-11-06T13:49:59.458Z,98452.28
2022-11-06T13:52:11.117Z,98448.97
2022-11-06T13:54:20.889Z,98433.63
2022-11-06T13:56:47.102Z,98437.75
2022-11-06T13:58:57.595Z,98430.63
2022-11-06T14:01:39.929Z,98427.34
2022-11-06T14:03:41.671Z,98424.03
2022-11-06T14:05:52.347Z,98434.75
2022-11-06T14:07:59.017Z,98435.84
2022-11-06T14:10:01.016Z,98436.13
2022-11-06T14:12:10.026Z,98425.41
2022-11-06T14:14:21.840Z,98424.88
2022-11-06T14:16:26.471Z,98432.56
2022-11-06T14:18:28.696Z,98422.97
2022-11-06T14:20:36.709Z,98422.41
2022-11-06T14:22:38.608Z,98425.41
2022-11-06T14:24:42.119Z,98423.25
2022-11-06T14:26:45.044Z,98421.59
2022-11-06T14:28:46.722Z,98409.56
2022-11-06T14:31:11.548Z,98404.34
2022-11-06T14:33:31.186Z,98397.50
2022-11-06T14:35:35.747Z,98399.69
2022-11-06T14:37:43.137Z,98400.75
2022-11-06T14:39:56.680Z,98402.13
2022-11-06T14:41:59.428Z,98404.88
2022-11-06T14:44:12.556Z,98401.59
2022-11-06T14:46:22.594Z,98393.91
2022-11-06T14:48:38.563Z,98394.19
2022-11-06T14:50:41.525Z,98396.66
2022-11-06T14:52:52.755Z,98399.13
2022-11-06T14:55:05.678Z,98405.69
2022-11-06T14:57:15.337Z,98415.00
2022-11-06T14:59:22.667Z,98408.16
2022-11-06T15:01:31.363Z,98403.47
2022-11-06T15:03:55.021Z,98401.31
2022-11-06T15:06:05.145Z,98405.41
2022-11-06T15:08:06.714Z,98411.13
2022-11-06T15:10:42.802Z,98409.22
2022-11-06T15:13:04.997Z,98412.22
2022-11-06T15:15:18.741Z,98417.94
2022-11-06T15:17:21.855Z,98420.94
2022-11-06T15:19:31.362Z,98423.16
2022-11-06T15:21:42.323Z,98423.69
2022-11-06T15:24:04.362Z,98411.91
2022-11-06T15:26:32.338Z,98408.06
2022-11-06T15:28:49.240Z,98405.88
2022-11-06T15:30:58.972Z,98398.75
2022-11-06T15:33:05.392Z,98394.63
2022-11-06T15:35:14.144Z,98389.69
2022-11-06T15:37:32.880Z,98397.34
2022-11-06T15:39:47.849Z,98384.22
2022-11-06T15:41:52.790Z,98386.94
2022-11-06T15:43:55.980Z,98390.78
2022-11-06T15:46:27.761Z,98387.22
2022-11-06T15:48:29.468Z,98394.88
2022-11-06T15:50:38.538Z,98389.94
2022-11-06T15:52:41.204Z,98384.16
2022-11-06T15:54:48.697Z,98381.16
2022-11-06T15:56:50.555Z,98385.25
2022-11-06T15:59:14.636Z,98381.94
2022-11-06T16:01:31.987Z,98388.75
2022-11-06T16:03:48.320Z,98383.00
2022-11-06T16:05:54.085Z,98376.16
2022-11-06T16:07:57.589Z,98376.41
2022-11-06T16:09:59.435Z,98387.63
2022-11-06T16:12:04.487Z,98384.59
2022-11-06T16:14:16.773Z,98384.03
2022-11-06T16:16:42.572Z,98381.28
2022-11-06T16:19:00.808Z,98384.03
2022-11-06T16:21:20.178Z,98376.09
2022-11-06T16:23:37.627Z,98376.59
2022-11-06T16:25:41.592Z,98367.84
2022-11-06T16:27:44.398Z,98368.09
2022-11-06T16:29:58.207Z,98379.59
2022-11-06T16:32:06.719Z,98375.72
2022-11-06T16:34:35.120Z,98377.34
2022-11-06T16:37:18.249Z,98380.06
2022-11-06T16:39:40.030Z,98373.47
2022-11-06T16:42:29.984Z,98380.81
2022-11-06T16:44:46.138Z,98377.25
2022-11-06T16:47:15.923Z,98375.34
2022-11-06T16:49:37.817Z,98379.41
2022-11-06T16:51:39.536Z,98385.94
2022-11-06T16:54:01.803Z,98379.63
2022-11-06T16:56:06.436Z,98380.72
2022-11-06T16:58:16.026Z,98375.78
2022-11-06T17:00:20.971Z,98373.28
2022-11-06T17:02:29.175Z,98369.97
2022-11-06T17:04:30.931Z,98362.63
2022-11-06T17:06:37.099Z,98369.97
2022-11-06T17:08:44.267Z,98372.16
2022-11-06T17:10:50.795Z,98372.44
2022-11-06T17:12:54.190Z,98360.69
2022-11-06T17:14:55.964Z,98373.78
2022-11-06T17:17:04.091Z,98375.91
2022-11-06T17:19:05.662Z,98369.06
2022-11-06T17:21:18.788Z,98367.69
2022-11-06T17:23:21.489Z,98368.81
2022-11-06T17:25:23.524Z,98367.97
2022-11-06T17:27:25.032Z,98378.34
2022-11-06T17:29:26.800Z,98376.94
2022-11-06T17:31:28.539Z,98372.00
2022-11-06T17:33:30.268Z,98372.00
2022-11-06T17:35:33.925Z,98385.34
2022-11-06T17:37:36.560Z,98385.59
2022-11-06T17:39:38.257Z,98387.78
2022-11-06T17:41:40.381Z,98385.28
2022-11-06T17:43:42.215Z,98382.56
2022-11-06T17:46:00.238Z,98377.38
2022-11-06T17:48:04.357Z,98373.28
2022-11-06T17:50:06.685Z,98384.19
2022-11-06T17:52:08.285Z,98383.63
2022-11-06T17:54:11.163Z,98372.94
2022-11-06T17:56:12.820Z,98375.97
2022-11-06T17:58:14.904Z,98378.13
2022-11-06T18:00:17.060Z,98370.19
2022-11-06T18:02:40.798Z,98372.91
2022-11-06T18:04:41.132Z,98375.91
2022-11-06T18:06:53.842Z,98383.28
2022-11-06T18:08:57.144Z,98376.16
2022-11-06T18:10:59.103Z,98376.16
2022-11-06T18:13:00.719Z,98378.88
2022-11-06T18:15:02.267Z,98368.25
2022-11-06T18:17:03.920Z,98365.25
2022-11-06T18:19:09.836Z,98362.50
2022-11-06T18:21:11.461Z,98359.22
2022-11-06T18:23:13.474Z,98351.03
2022-11-06T18:25:15.064Z,98343.97
2022-11-06T18:27:16.925Z,98332.22
2022-11-06T18:29:18.967Z,98339.31
2022-11-06T18:31:21.216Z,98347.25
2022-11-06T18:33:25.675Z,98360.31
2022-11-06T18:35:27.401Z,98351.88
2022-11-06T18:37:29.099Z,98361.13
2022-11-06T18:39:33.780Z,98351.03
2022-11-06T18:41:35.710Z,98354.88
2022-11-06T18:43:37.934Z,98351.31
2022-11-06T18:45:40.550Z,98347.75
2022-11-06T18:47:42.175Z,98353.22
2022-11-06T18:49:43.854Z,98339.56
2022-11-06T18:51:51.448Z,98339.56
2022-11-06T18:53:58.216Z,98335.78
2022-11-06T18:56:00.851Z,98333.84
2022-11-06T18:58:07.247Z,98331.38
2022-11-06T19:00:09.631Z,98323.47
2022-11-06T19:02:11.558Z,98328.09
2022-11-06T19:04:13.814Z,98324.81
2022-11-06T19:06:21.367Z,98324.00
2022-11-06T19:08:24.209Z,98322.66
2022-11-06T19:10:28.799Z,98315.53
2022-11-06T19:12:30.338Z,98322.66
2022-11-06T19:14:32.040Z,98325.63
2022-11-06T19:16:33.853Z,98313.91
2022-11-06T19:18:37.836Z,98313.91
2022-11-06T19:20:41.027Z,98323.16
2022-11-06T19:22:42.786Z,98334.06
2022-11-06T19:24:44.389Z,98341.44
2022-11-06T19:26:47.755Z,98351.28
2022-11-06T19:28:50.885Z,98357.78
2022-11-06T19:30:53.408Z,98357.56
2022-11-06T19:32:55.199Z,98357.56
2022-11-06T19:34:57.008Z,98354.81
2022-11-06T19:36:58.815Z,98356.44
2022-11-06T19:39:00.936Z,98351.81
2022-11-06T19:41:05.003Z,98359.19
2022-11-06T19:43:10.883Z,98356.22
2022-11-06T19:45:12.716Z,98358.94
2022-11-06T19:47:14.335Z,98359.75
2022-11-06T19:49:24.193Z,98354.03
2022-11-06T19:51:27.435Z,98361.13
2022-11-06T19:53:29.317Z,98355.44
2022-11-06T19:55:39.977Z,98350.53
2022-11-06T19:57:41.880Z,98350.53
2022-11-06T19:59:45.892Z,98345.06
2022-11-06T20:01:49.028Z,98354.63
2022-11-06T20:03:50.901Z,98345.94
2022-11-06T20:05:55.749Z,98335.59
2022-11-06T20:07:57.404Z,98336.41
2022-11-06T20:10:02.150Z,98345.16
2022-11-06T20:12:04.574Z,98350.91
2022-11-06T20:14:06.604Z,98355.28
2022-11-06T20:16:19.960Z,98354.75
2022-11-06T20:18:21.701Z,98346.84
2022-11-06T20:20:23.449Z,98350.66
2022-11-06T20:22:26.829Z,98353.94
2022-11-06T20:24:28.330Z,98354.25
2022-11-06T20:26:29.948Z,98357.81
2022-11-06T20:28:31.628Z,98358.59
2022-11-06T20:30:33.354Z,98357.53
2022-11-06T20:32:35.817Z,98350.41
2022-11-06T20:34:37.776Z,98345.25
2022-11-06T20:36:39.591Z,98340.63
2022-11-06T20:38:42.367Z,98343.38
2022-11-06T20:40:44.076Z,98346.66
2022-11-06T20:42:45.823Z,98341.19
2022-11-06T20:44:47.527Z,98345.31
2022-11-06T20:46:49.472Z,98349.69
2022-11-06T20:48:52.060Z,98349.69
2022-11-06T20:51:02.400Z,98362.00
2022-11-06T20:53:04.579Z,98362.22
2022-11-06T20:55:06.884Z,98363.06
2022-11-06T20:57:08.353Z,98381.91
2022-11-06T20:59:10.243Z,98377.03
2022-11-06T21:01:20.694Z,98375.09
2022-11-06T21:03:23.655Z,98377.81
2022-11-06T21:05:28.177Z,98381.66
2022-11-06T21:07:29.848Z,98373.72
2022-11-06T21:09:34.664Z,98382.72
2022-11-06T21:11:36.700Z,98379.16
2022-11-06T21:13:40.675Z,98378.09
2022-11-06T21:15:42.768Z,98370.75
2022-11-06T21:17:46.930Z,98385.22
2022-11-06T21:19:48.600Z,98394.19
2022-11-06T21:21:51.199Z,98398.88
2022-11-06T21:23:56.168Z,98396.38
2022-11-06T21:25:57.888Z,98391.47
2022-11-06T21:28:00.091Z,98395.03
2022-11-06T21:30:04.881Z,98401.88
2022-11-06T21:32:07.591Z,98401.31
2022-11-06T21:34:09.218Z,98403.22
2022-11-06T21:36:22.753Z,98394.19
2022-11-06T21:38:24.452Z,98398.59
2022-11-06T21:40:26.772Z,98395.63
2022-11-06T21:42:28.399Z,98398.34
2022-11-06T21:44:30.115Z,98396.16
2022-11-06T21:46:32.424Z,98396.41
2022-11-06T21:48:47.999Z,98398.34
2022-11-06T21:50:51.013Z,98409.81
2022-11-06T21:53:12.090Z,98405.44
2022-11-06T21:55:34.069Z,98406.00
2022-11-06T21:57:40.682Z,98407.09
2022-11-06T21:59:43.752Z,98397.78
2022-11-06T22:01:45.710Z,98405.19
2022-11-06T22:03:47.888Z,98404.09
2022-11-06T22:05:49.638Z,98407.38
2022-11-06T22:07:51.243Z,98400.84
2022-11-06T22:09:52.873Z,98401.44
2022-11-06T22:11:54.457Z,98402.25
2022-11-06T22:14:05.220Z,98404.97
2022-11-06T22:16:08.647Z,98412.34
2022-11-06T22:18:13.690Z,98410.44
2022-11-06T22:20:23.066Z,98409.38
2022-11-06T22:22:25.081Z,98413.72
2022-11-06T22:24:26.674Z,98403.91
2022-11-06T22:26:33.497Z,98406.88
2022-11-06T22:28:35.392Z,98413.19
2022-11-06T22:30:37.054Z,98417.28
2022-11-06T22:32:38.627Z,98416.47
2022-11-06T22:34:40.285Z,98412.66
2022-11-06T22:36:42.010Z,98413.72
2022-11-06T22:38:45.074Z,98420.28
2022-11-06T22:40:54.705Z,98422.44
2022-11-06T22:42:58.937Z,98419.47
2022-11-06T22:45:00.884Z,98420.28
2022-11-06T22:47:03.008Z,98420.28
2022-11-06T22:49:11.469Z,98432.34
2022-11-06T22:51:19.137Z,98425.78
2022-11-06T22:53:21.170Z,98423.88
2022-11-06T22:55:22.970Z,98430.44
2022-11-06T22:57:24.660Z,98425.78
2022-11-06T22:59:29.404Z,98424.97
2022-11-06T23:01:41.261Z,98434.00
2022-11-06T23:03:43.780Z,98436.13
2022-11-06T23:05:45.508Z,98442.41
2022-11-06T23:07:49.536Z,98445.97
2022-11-06T23:09:51.289Z,98445.47
2022-11-06T23:11:53.201Z,98445.47
2022-11-06T23:13:58.919Z,98450.94
2022-11-06T23:16:04.270Z,98452.84
2022-11-06T23:18:07.361Z,98450.09
2022-11-06T23:20:09.562Z,98450.38
2022-11-06T23:22:30.110Z,98447.38
2022-11-06T23:24:32.921Z,98444.91
2022-11-06T23:26:40.169Z,98449.00
2022-11-06T23:28:51.014Z,98449.78
2022-11-06T23:31:05.497Z,98451.97
2022-11-06T23:33:10.524Z,98450.88
2022-11-06T23:35:22.625Z,98452.78
2022-11-06T23:37:33.807Z,98457.44
2022-11-06T23:39:44.961Z,98457.19
2022-11-06T23:41:49.110Z,98457.69
2022-11-06T23:43:51.657Z,98463.41
2022-11-06T23:46:03.706Z,98466.72
2022-11-06T23:48:14.552Z,98467.50
2022-11-06T23:50:19.757Z,98464.00
2022-11-06T23:52:24.402Z,98464.53
2022-11-06T23:54:26.408Z,98467.81
2022-11-06T23:56:34.834Z,98464.28
